createdAt,value
2017-06-22T00:03:58.826Z,0
2017-06-22T00:08:55.561Z,0
2017-06-22T00:13:52.065Z,0
2017-06-22T00:18:47.770Z,0
2017-06-22T00:23:43.960Z,0
2017-06-22T00:28:39.720Z,0
2017-06-22T00:33:36.627Z,0
2017-06-22T00:38:33.164Z,0
2017-06-22T00:43:28.736Z,0
2017-06-22T00:48:24.550Z,0
2017-06-22T00:53:20.450Z,0
2017-06-22T00:58:17.360Z,0
2017-06-22T01:03:13.500Z,0
2017-06-22T01:08:10.067Z,0
2017-06-22T01:13:05.526Z,0
2017-06-22T01:18:02.104Z,0
2017-06-22T01:22:58.028Z,0
2017-06-22T01:27:54.366Z,0
2017-06-22T01:32:50.217Z,0
2017-06-22T01:37:46.508Z,0
2017-06-22T01:42:42.448Z,0
2017-06-22T01:47:39.432Z,0
2017-06-22T01:52:36.406Z,0
2017-06-22T01:57:32.096Z,0
2017-06-22T02:02:27.815Z,0
2017-06-22T02:07:23.548Z,0
2017-06-22T02:12:20.436Z,0
2017-06-22T02:17:16.232Z,0
2017-06-22T02:22:11.883Z,0
2017-06-22T02:27:08.319Z,0
2017-06-22T02:32:04.108Z,0
2017-06-22T02:36:59.901Z,0
2017-06-22T02:41:55.874Z,0
2017-06-22T02:46:52.204Z,0
2017-06-22T02:51:48.146Z,0
2017-06-22T02:56:45.167Z,0
2017-06-22T03:01:41.809Z,0
2017-06-22T03:06:38.525Z,0
2017-06-22T03:11:34.099Z,5
2017-06-22T03:16:30.099Z,5
2017-06-22T03:21:26.016Z,10
2017-06-22T03:26:23.009Z,15
2017-06-22T03:31:18.465Z,20
2017-06-22T03:36:14.717Z,25
2017-06-22T03:41:11.392Z,30
2017-06-22T03:46:08.456Z,35
2017-06-22T03:51:04.821Z,40
2017-06-22T03:56:01.720Z,40
2017-06-22T04:00:57.472Z,50
2017-06-22T04:05:53.536Z,55
2017-06-22T04:10:51.887Z,55
2017-06-22T04:15:48.353Z,55
2017-06-22T04:20:44.156Z,60
2017-06-22T04:25:39.962Z,65
2017-06-22T04:30:36.050Z,65
2017-06-22T04:35:31.870Z,100
2017-06-22T04:40:28.071Z,125
2017-06-22T04:45:25.467Z,110
2017-06-22T04:50:21.496Z,130
2017-06-22T04:55:17.970Z,155
2017-06-22T05:00:14.625Z,190
2017-06-22T05:05:12.135Z,145
2017-06-22T05:10:07.903Z,105
2017-06-22T05:15:03.538Z,110
2017-06-22T05:19:59.311Z,140
2017-06-22T05:24:55.133Z,150
2017-06-22T05:29:50.970Z,180
2017-06-22T05:34:47.515Z,185
2017-06-22T05:39:45.167Z,190
2017-06-22T05:44:41.471Z,200
2017-06-22T05:49:39.002Z,195
2017-06-22T05:54:36.142Z,195
2017-06-22T05:59:32.099Z,175
2017-06-22T06:04:29.828Z,175
2017-06-22T06:09:25.050Z,175
2017-06-22T06:14:20.926Z,180
2017-06-22T06:19:17.186Z,180
2017-06-22T06:24:13.147Z,175
2017-06-22T06:29:08.989Z,180
2017-06-22T06:34:05.967Z,185
2017-06-22T06:39:01.515Z,195
2017-06-22T06:43:57.779Z,195
2017-06-22T06:48:53.891Z,205
2017-06-22T06:53:50.863Z,215
2017-06-22T06:58:47.117Z,225
2017-06-22T07:03:43.415Z,220
2017-06-22T07:08:40.564Z,235
2017-06-22T07:13:36.294Z,240
2017-06-22T07:18:32.395Z,250
2017-06-22T07:23:29.934Z,275
2017-06-22T07:28:26.870Z,285
2017-06-22T07:33:23.028Z,315
2017-06-22T07:38:19.435Z,355
2017-06-22T07:43:15.849Z,385
2017-06-22T07:48:12.466Z,380
2017-06-22T07:53:09.502Z,720
2017-06-22T07:58:08.771Z,385
2017-06-22T08:03:05.312Z,865
2017-06-22T08:08:02.566Z,825
2017-06-22T08:13:00.020Z,445
2017-06-22T08:17:55.650Z,295
2017-06-22T08:22:52.032Z,1185
2017-06-22T08:27:50.180Z,1340
2017-06-22T08:32:48.665Z,1280
2017-06-22T08:37:45.836Z,1400
2017-06-22T08:42:42.815Z,1445
2017-06-22T08:47:39.551Z,1490
2017-06-22T08:52:37.404Z,1415
2017-06-22T08:57:33.638Z,1425
2017-06-22T09:02:30.500Z,1355
2017-06-22T09:07:26.612Z,1435
2017-06-22T09:12:22.837Z,1485
2017-06-22T09:17:19.410Z,1525
2017-06-22T09:22:15.715Z,1545
2017-06-22T09:27:12.349Z,1460
2017-06-22T09:32:08.669Z,1290
2017-06-22T09:37:04.661Z,1435
2017-06-22T09:42:00.891Z,1405
2017-06-22T09:46:56.972Z,1465
2017-06-22T09:51:53.291Z,1525
2017-06-22T09:56:49.496Z,1670
2017-06-22T10:01:47.940Z,1270
2017-06-22T10:06:43.907Z,715
2017-06-22T10:11:38.825Z,610
2017-06-22T10:16:36.297Z,1665
2017-06-22T10:21:32.878Z,1485
2017-06-22T10:26:29.184Z,1385
2017-06-22T10:31:25.846Z,1390
2017-06-22T10:36:22.598Z,1560
2017-06-22T10:41:19.866Z,1335
2017-06-22T10:46:15.643Z,1430
2017-06-22T10:51:11.765Z,795
2017-06-22T10:56:07.358Z,1350
2017-06-22T11:01:03.835Z,1295
2017-06-22T11:06:00.495Z,1370
2017-06-22T11:10:57.149Z,1385
2017-06-22T11:15:54.053Z,1240
2017-06-22T11:20:50.222Z,1290
2017-06-22T11:25:46.348Z,1050
2017-06-22T11:30:41.944Z,1060
2017-06-22T11:35:38.643Z,1090
2017-06-22T11:40:35.274Z,1190
2017-06-22T11:45:32.046Z,1430
2017-06-22T11:50:29.382Z,1390
2017-06-22T11:55:26.111Z,1520
2017-06-22T12:00:23.077Z,1605
2017-06-22T12:05:20.751Z,1560
2017-06-22T12:10:17.084Z,1700
2017-06-22T12:15:13.448Z,1605
2017-06-22T12:20:09.103Z,1560
2017-06-22T12:25:05.127Z,1190
2017-06-22T12:30:01.106Z,1330
2017-06-22T12:34:57.479Z,1735
2017-06-22T12:39:53.694Z,1485
2017-06-22T12:44:48.638Z,1400
2017-06-22T12:49:45.895Z,1210
2017-06-22T12:54:41.909Z,1575
2017-06-22T12:59:37.925Z,1610
2017-06-22T13:04:34.047Z,1565
2017-06-22T13:09:29.461Z,1385
2017-06-22T13:14:25.611Z,1545
2017-06-22T13:19:21.742Z,1610
2017-06-22T13:24:18.860Z,1695
2017-06-22T13:29:15.366Z,1355
2017-06-22T13:34:10.630Z,1570
2017-06-22T13:39:07.500Z,1515
2017-06-22T13:44:03.039Z,1260
2017-06-22T13:48:58.875Z,1345
2017-06-22T13:53:54.985Z,1420
2017-06-22T13:58:51.764Z,1130
2017-06-22T14:03:48.259Z,315
2017-06-22T14:08:44.137Z,265
2017-06-22T14:13:39.345Z,245
2017-06-22T14:18:34.961Z,230
2017-06-22T14:23:30.939Z,260
2017-06-22T14:28:26.665Z,245
2017-06-22T14:33:22.626Z,270
2017-06-22T14:38:18.681Z,260
2017-06-22T14:43:16.057Z,245
2017-06-22T14:48:13.025Z,290
2017-06-22T14:53:09.687Z,260
2017-06-22T14:58:05.393Z,230
2017-06-22T15:03:01.427Z,230
2017-06-22T15:07:57.585Z,245
2017-06-22T15:12:53.431Z,205
2017-06-22T15:17:50.602Z,160
2017-06-22T15:22:46.412Z,195
2017-06-22T15:27:42.710Z,230
2017-06-22T15:32:38.861Z,185
2017-06-22T15:37:35.769Z,165
2017-06-22T15:42:31.755Z,160
2017-06-22T15:47:27.754Z,135
2017-06-22T15:52:24.616Z,150
2017-06-22T15:57:20.099Z,170
2017-06-22T16:02:17.277Z,215
2017-06-22T16:07:13.061Z,220
2017-06-22T16:12:09.492Z,180
2017-06-22T16:17:07.224Z,135
2017-06-22T16:22:02.455Z,120
2017-06-22T16:26:58.401Z,165
2017-06-22T16:31:54.635Z,150
2017-06-22T16:36:50.558Z,160
2017-06-22T16:41:47.722Z,140
2017-06-22T16:46:44.226Z,120
2017-06-22T16:51:41.960Z,120
2017-06-22T16:56:38.114Z,110
2017-06-22T17:01:34.123Z,105
2017-06-22T17:06:31.030Z,60
2017-06-22T17:11:27.527Z,65
2017-06-22T17:16:23.254Z,80
2017-06-22T17:21:19.613Z,130
2017-06-22T17:26:16.679Z,100
2017-06-22T17:31:12.351Z,145
2017-06-22T17:36:08.855Z,115
2017-06-22T17:41:04.609Z,65
2017-06-22T17:46:00.442Z,75
2017-06-22T17:50:56.486Z,40
2017-06-22T17:55:52.357Z,60
2017-06-22T18:00:48.339Z,65
2017-06-22T18:05:44.359Z,65
2017-06-22T18:10:42.186Z,50
2017-06-22T18:15:38.814Z,25
2017-06-22T18:20:34.390Z,15
2017-06-22T18:25:31.220Z,40
2017-06-22T18:30:26.979Z,80
2017-06-22T18:35:22.976Z,50
2017-06-22T18:40:18.722Z,30
2017-06-22T18:45:14.157Z,50
2017-06-22T18:50:09.794Z,40
2017-06-22T18:55:06.605Z,25
2017-06-22T19:00:02.253Z,30
2017-06-22T19:04:59.336Z,25
2017-06-22T19:09:55.848Z,30
2017-06-22T19:14:51.336Z,25
2017-06-22T19:19:47.622Z,25
2017-06-22T19:24:43.286Z,20
2017-06-22T19:29:38.904Z,15
2017-06-22T19:34:34.657Z,15
2017-06-22T19:39:31.821Z,10
2017-06-22T19:44:27.310Z,5
2017-06-22T19:49:23.109Z,0
2017-06-22T19:54:19.085Z,0
2017-06-22T19:59:16.631Z,0
2017-06-22T20:04:12.082Z,0
2017-06-22T20:09:07.960Z,0
2017-06-22T20:14:04.689Z,0
2017-06-22T20:19:00.799Z,0
2017-06-22T20:23:56.735Z,0
2017-06-22T20:28:52.468Z,0
2017-06-22T20:33:48.284Z,0
2017-06-22T20:38:44.379Z,0
2017-06-22T20:43:40.302Z,0
2017-06-22T20:48:36.045Z,0
2017-06-22T20:53:32.357Z,0
2017-06-22T20:58:29.272Z,0
2017-06-22T21:03:24.714Z,0
2017-06-22T21:08:20.672Z,0
2017-06-22T21:13:17.601Z,0
2017-06-22T21:18:13.599Z,0
2017-06-22T21:23:09.863Z,0
2017-06-22T21:28:05.844Z,0
2017-06-22T21:33:02.078Z,0
2017-06-22T21:37:57.968Z,0
2017-06-22T21:42:54.199Z,0
2017-06-22T21:47:50.184Z,0
2017-06-22T21:52:47.003Z,0
2017-06-22T21:57:43.203Z,0
2017-06-22T22:02:39.171Z,0
2017-06-22T22:07:35.328Z,0
2017-06-22T22:12:31.206Z,0
2017-06-22T22:17:27.364Z,0
2017-06-22T22:22:23.554Z,0
2017-06-22T22:27:20.387Z,0
2017-06-22T22:32:16.438Z,0
2017-06-22T22:37:12.302Z,0
2017-06-22T22:42:08.621Z,0
2017-06-22T22:47:04.409Z,0
2017-06-22T22:52:00.237Z,0
2017-06-22T22:56:56.096Z,0
2017-06-22T23:01:52.299Z,0
2017-06-22T23:06:49.284Z,0
2017-06-22T23:11:45.994Z,0
2017-06-22T23:16:41.631Z,0
2017-06-22T23:21:37.512Z,0
2017-06-22T23:26:34.400Z,0
2017-06-22T23:31:30.283Z,0
2017-06-22T23:36:26.742Z,0
2017-06-22T23:41:22.853Z,0
2017-06-22T23:46:18.803Z,0
2017-06-22T23:51:15.872Z,0
2017-06-22T23:56:12.357Z,0
